Euro — C6AA5 — position and weather

sailwx.info

Track history (hours):
 
Tides and Currents Weather Stations Pressure Air Temp Water Temp Dewpoint Dewpoint Depression Visibility Wind Speed Wind Dir Waves Ship Positions

Euro

Last reported at 2018-May-31 18:21 UTC. Time now 2018-Jun-24 01:22 UTC.
Position N 04°50' E 000°20'.
Warning: this ship's position is 23 days out of date.

Length 274 m; draft 9 m.

Type: Ship (hazmat cat B). MMSI: 311073800.

Date/timePositionNaut miles runAvg speedWind from/ knotsBaromVisibWave heightAir tempDewpointWater temp
2018-May-31 18:21N 04°50' E 000°20'514.4
2018-May-31 18:00N 04°55' E 000°19'713.6
2018-May-31 17:30N 05°02' E 000°16'611.5
2018-May-31 17:00N 05°07' E 000°15'714.4
2018-May-31 16:30N 05°14' E 000°13'714.2
2018-May-31 16:00N 05°21' E 000°11'813.5
2018-May-31 15:26N 05°28' E 000°08'3 7.6
2018-May-31 15:01N 05°31' E 000°07'1 2.1
2018-May-31 14:30N 05°30' E 000°07'1 1.1
2018-May-31 14:00N 05°30' E 000°08'1 1.3
2018-May-31 13:29N 05°29' E 000°08'1 1.3
2018-May-31 12:58N 05°29' E 000°08'1 1.1
2018-May-31 12:28N 05°29' E 000°09'0 0.4
2018-May-31 11:58N 05°29' E 000°09'1 1.5
2018-May-31 11:30N 05°28' E 000°08'3 5.1
2018-May-31 11:00N 05°28' E 000°06'0 0.7
2018-May-31 10:30N 05°28' E 000°06'0 0.9
2018-May-31 09:59N 05°28' E 000°06'0 1.0
2018-May-31 09:30N 05°28' E 000°07'0 1.0
2018-May-31 09:00N 05°28' E 000°07'0 0.8
2018-May-31 08:29N 05°27' E 000°07'0 0.7
2018-May-31 08:00N 05°27' E 000°08'0 0.5
2018-May-31 07:30N 05°27' E 000°08'1 2.6
2018-May-31 07:00N 05°26' E 000°08'4 8.2
2018-May-31 06:30N 05°22' E 000°06'510.0
2018-May-31 06:00N 05°17' E 000°05'510.5
2018-May-31 05:30N 05°12' E 000°05'510.2
2018-May-31 05:00N 05°09' E 000°00'510.4
2018-May-31 04:30N 05°04' W 000°02'  
2018-May-23 09:34N 27°41' W 016°28'113.2
2018-May-23 09:29N 27°42' W 016°27'2412.8
2018-May-23 07:37N 28°04' W 016°17'213.0
2018-May-23 07:29N 28°05' W 016°15'613.1
2018-May-23 07:00N 28°10' W 016°11'713.1
2018-May-23 06:30N 28°15' W 016°06'713.3
2018-May-23 06:00N 28°20' W 016°01'713.3
2018-May-23 05:30N 28°25' W 015°56'713.5
2018-May-23 05:00N 28°30' W 015°51'1513.4
2018-May-23 03:52N 28°42' W 015°41'513.3
2018-May-23 03:29N 28°47' W 015°39'613.3
2018-May-23 03:00N 28°53' W 015°36'  
Track history (hours):
 
Tides and Currents Weather Stations Pressure Air Temp Water Temp Dewpoint Dewpoint Depression Visibility Wind Speed Wind Dir Waves Ship Positions

Euro

Last reported at 2018-May-31 18:21 UTC. Time now 2018-Jun-24 01:22 UTC.
Position N 04°50' E 000°20'.
Warning: this ship's position is 23 days out of date.

Length 274 m; draft 9 m.

Type: Ship (hazmat cat B). MMSI: 311073800.

Date/timePositionNaut miles runAvg speedWind from/ knotsBaromVisibWave heightAir tempDewpointWater temp
2018-May-31 18:21N 04°50' E 000°20'514.4
2018-May-31 18:00N 04°55' E 000°19'713.6
2018-May-31 17:30N 05°02' E 000°16'611.5
2018-May-31 17:00N 05°07' E 000°15'714.4
2018-May-31 16:30N 05°14' E 000°13'714.2
2018-May-31 16:00N 05°21' E 000°11'813.5
2018-May-31 15:26N 05°28' E 000°08'3 7.6
2018-May-31 15:01N 05°31' E 000°07'1 2.1
2018-May-31 14:30N 05°30' E 000°07'1 1.1
2018-May-31 14:00N 05°30' E 000°08'1 1.3
2018-May-31 13:29N 05°29' E 000°08'1 1.3
2018-May-31 12:58N 05°29' E 000°08'1 1.1
2018-May-31 12:28N 05°29' E 000°09'0 0.4
2018-May-31 11:58N 05°29' E 000°09'1 1.5
2018-May-31 11:30N 05°28' E 000°08'3 5.1
2018-May-31 11:00N 05°28' E 000°06'0 0.7
2018-May-31 10:30N 05°28' E 000°06'0 0.9
2018-May-31 09:59N 05°28' E 000°06'0 1.0
2018-May-31 09:30N 05°28' E 000°07'0 1.0
2018-May-31 09:00N 05°28' E 000°07'0 0.8
2018-May-31 08:29N 05°27' E 000°07'0 0.7
2018-May-31 08:00N 05°27' E 000°08'0 0.5
2018-May-31 07:30N 05°27' E 000°08'1 2.6
2018-May-31 07:00N 05°26' E 000°08'4 8.2
2018-May-31 06:30N 05°22' E 000°06'510.0
2018-May-31 06:00N 05°17' E 000°05'510.5
2018-May-31 05:30N 05°12' E 000°05'510.2
2018-May-31 05:00N 05°09' E 000°00'510.4
2018-May-31 04:30N 05°04' W 000°02'  
2018-May-23 09:34N 27°41' W 016°28'113.2
2018-May-23 09:29N 27°42' W 016°27'2412.8
2018-May-23 07:37N 28°04' W 016°17'213.0
2018-May-23 07:29N 28°05' W 016°15'613.1
2018-May-23 07:00N 28°10' W 016°11'713.1
2018-May-23 06:30N 28°15' W 016°06'713.3
2018-May-23 06:00N 28°20' W 016°01'713.3
2018-May-23 05:30N 28°25' W 015°56'713.5
2018-May-23 05:00N 28°30' W 015°51'1513.4
2018-May-23 03:52N 28°42' W 015°41'513.3
2018-May-23 03:29N 28°47' W 015°39'613.3
2018-May-23 03:00N 28°53' W 015°36'  

Dump ship's entire track history